Main page
METAR-TAF:

METAR-TAF

Airports :

Clearwater Air Park

Clearwater, Florida, United States

latitude: 27-58-36N, longitude: 082-45-31W, elevation: 72 ft

Current weather observation

The report was made 17 minutes ago, at 10:35 UTC
Calm wind
Temperature 77°F
Humidity 83%
Pressure 30.01 in. Hg
Visibility: 10 miles
Scattered clouds at a height of 1400 ft
Scattered clouds at a height of 1900 ft
Scattered clouds at a height of 2900 ft

METAR: KCLW 281035Z AUTO 00000KT 10SM SCT014 SCT019 SCT029 25/22 A3001 RMK AO2

Time: 06:52 (10:52 UTC)


TAF: missing

Weather observations and forecasts of more than 4000 airports (METAR and TAF reports).

The available stations are represented by yellow and red dots on the map.

Hover mouse over dot to see the name of the station.

Then click to see weather observations and forecasts.

To change the map : click on the green buttons with a black cross to zoom in, on the green button with a dash to zoom out, or on the green arrows for adjacent maps.


METAR-TAF: